Time;durP1;ratioP1;P1;durP2;ratioP2;P2;SDS_P1;SDS_P2;PMS_P1;PMS_P2;Temp;Humidity;BMP_temperature;BMP_pressure;BME280_temperature;BME280_humidity;BME280_pressure;Samples;Min_cycle;Max_cycle;Signal;HPM_P1;HPM_P2
2023/05/07 00:01:05;;;;;;;10.93;5.10;;;17.10;53.70;;;;;;5074567;28;20574;-71
2023/05/07 00:03:31;;;;;;;8.10;4.90;;;17.10;55.80;;;;;;5074348;28;20173;-70
2023/05/07 00:05:56;;;;;;;7.03;4.73;;;17.00;56.20;;;;;;5074033;28;20217;-70
2023/05/07 00:08:22;;;;;;;6.50;4.77;;;17.10;55.80;;;;;;5073888;28;20192;-70
2023/05/07 00:10:48;;;;;;;8.10;4.47;;;17.10;52.90;;;;;;5074452;28;20591;-70
2023/05/07 00:13:13;;;;;;;4.90;3.93;;;17.10;54.70;;;;;;5074337;28;20172;-70
2023/05/07 00:15:39;;;;;;;5.73;4.50;;;17.00;51.10;;;;;;5074124;28;20647;-70
2023/05/07 00:18:05;;;;;;;8.37;4.60;;;17.10;52.50;;;;;;5056424;28;20180;-70
2023/05/07 00:20:30;;;;;;;7.77;4.67;;;17.10;52.00;;;;;;5073417;28;20256;-70
2023/05/07 00:22:56;;;;;;;7.53;4.67;;;17.10;51.80;;;;;;5073718;28;20544;-70
2023/05/07 00:25:21;;;;;;;7.87;4.73;;;17.00;50.80;;;;;;5074065;28;20532;-69
2023/05/07 00:27:47;;;;;;;6.23;4.73;;;17.10;50.90;;;;;;5074025;28;20172;-70
2023/05/07 00:30:13;;;;;;;8.93;4.97;;;17.20;51.20;;;;;;5073846;28;20169;-69
2023/05/07 00:32:39;;;;;;;11.33;5.23;;;17.20;46.10;;;;;;5073797;28;20208;-69
2023/05/07 00:35:05;;;;;;;9.27;4.50;;;17.20;46.90;;;;;;5074077;28;20173;-70
2023/05/07 00:37:31;;;;;;;7.65;4.30;;;17.30;41.90;;;;;;5073305;28;20169;-69
2023/05/07 00:39:57;;;;;;;6.55;4.50;;;17.30;35.00;;;;;;5073522;28;20181;-69
2023/05/07 00:42:23;;;;;;;4.73;3.93;;;17.30;33.30;;;;;;5073830;28;20187;-69
2023/05/07 00:44:50;;;;;;;7.53;4.40;;;17.20;32.70;;;;;;5073936;28;20176;-69
2023/05/07 00:47:16;;;;;;;8.27;4.40;;;17.20;36.90;;;;;;5073672;28;20172;-69
2023/05/07 00:49:43;;;;;;;6.40;4.53;;;17.20;36.10;;;;;;5055813;28;20172;-69
2023/05/07 00:52:15;;;;;;;9.57;4.43;;;17.10;38.40;;;;;;5073238;28;20203;-69
2023/05/07 00:54:42;;;;;;;8.13;4.33;;;17.10;38.80;;;;;;5073755;28;20183;-69
2023/05/07 00:57:10;;;;;;;8.10;4.33;;;17.20;38.00;;;;;;5055511;28;20173;-69
2023/05/07 00:59:36;;;;;;;6.93;4.47;;;17.20;33.30;;;;;;5055648;28;20183;-69
2023/05/07 01:02:02;;;;;;;6.10;3.67;;;17.10;38.90;;;;;;5073544;28;20671;-68
2023/05/07 01:04:28;;;;;;;14.37;4.60;;;17.00;39.00;;;;;;5073564;28;20196;-69
2023/05/07 01:06:56;;;;;;;7.07;3.90;;;17.00;40.60;;;;;;5072962;28;20255;-69
2023/05/07 01:09:23;;;;;;;8.27;4.07;;;17.00;37.40;;;;;;5072813;28;20576;-68
2023/05/07 01:11:50;;;;;;;8.13;4.30;;;17.00;38.30;;;;;;5073410;28;20200;-68
2023/05/07 01:14:16;;;;;;;9.07;4.33;;;17.00;39.00;;;;;;5073254;28;20211;-69
2023/05/07 01:16:42;;;;;;;7.23;3.70;;;16.90;36.20;;;;;;5073372;28;20226;-69
2023/05/07 01:19:10;;;;;;;9.40;4.13;;;16.90;36.00;;;;;;5072964;28;20224;-70
2023/05/07 01:21:37;;;;;;;5.20;3.77;;;17.00;38.50;;;;;;5072815;28;20167;-68
2023/05/07 01:24:04;;;;;;;7.37;4.10;;;16.90;38.10;;;;;;5073158;28;20636;-70
2023/05/07 01:26:30;;;;;;;5.83;4.07;;;16.90;36.60;;;;;;5073189;28;20624;-70
2023/05/07 01:28:56;;;;;;;11.30;4.93;;;16.90;37.50;;;;;;5072994;28;20175;-68
2023/05/07 01:31:24;;;;;;;7.33;4.40;;;16.80;36.70;;;;;;5073236;28;20681;-71
2023/05/07 01:33:52;;;;;;;7.63;4.20;;;16.80;38.60;;;;;;5072989;28;20161;-71
2023/05/07 01:36:19;;;;;;;6.53;4.17;;;16.70;39.30;;;;;;5072784;28;20550;-69
2023/05/07 01:38:45;;;;;;;9.27;4.53;;;16.70;39.10;;;;;;5072990;28;20161;-69
2023/05/07 01:41:12;;;;;;;7.20;4.23;;;16.70;38.80;;;;;;5073186;28;20169;-69
2023/05/07 01:43:39;;;;;;;8.60;4.50;;;16.70;37.70;;;;;;5073109;28;20168;-70
2023/05/07 01:46:05;;;;;;;11.53;5.00;;;16.80;34.90;;;;;;5073068;28;20199;-69
2023/05/07 01:48:32;;;;;;;9.73;4.40;;;16.70;33.60;;;;;;5054904;28;20172;-70
2023/05/07 01:50:58;;;;;;;9.27;4.53;;;16.70;32.20;;;;;;5072379;28;20192;-70
2023/05/07 01:53:27;;;;;;;6.83;4.53;;;16.80;34.40;;;;;;5072779;28;20169;-70
2023/05/07 01:55:53;;;;;;;14.03;6.87;;;16.80;33.30;;;;;;5073057;28;20173;-70
2023/05/07 01:58:18;;;;;;;9.57;4.63;;;16.80;31.50;;;;;;5072899;28;20253;-70
2023/05/07 02:00:44;;;;;;;11.40;4.83;;;16.80;29.20;;;;;;5072845;28;20518;-69
2023/05/07 02:03:10;;;;;;;8.00;4.90;;;16.90;26.00;;;;;;5072669;28;20171;-70
2023/05/07 02:05:35;;;;;;;6.50;4.67;;;16.90;21.60;;;;;;5054565;28;20177;-70
2023/05/07 02:08:01;;;;;;;7.27;4.07;;;16.90;19.80;;;;;;5072747;28;20255;-70
2023/05/07 02:10:26;;;;;;;7.97;4.40;;;17.00;16.50;;;;;;5072758;28;20248;-70
2023/05/07 02:12:52;;;;;;;7.87;4.60;;;16.90;8.90;;;;;;5072990;28;20172;-70
2023/05/07 02:15:18;;;;;;;7.17;4.10;;;17.00;8.60;;;;;;5072679;28;20234;-70
2023/05/07 02:18:04;;;;;;;7.27;4.10;;;17.00;2.00;;;;;;5072587;28;20180;-70
2023/05/07 02:20:30;;;;;;;6.90;4.20;;;17.00;1.90;;;;;;5051734;28;20225;-70
2023/05/07 02:22:55;;;;;;;7.47;3.77;;;17.00;2.40;;;;;;5056506;28;20178;-70
2023/05/07 02:25:21;;;;;;;8.87;4.60;;;17.00;2.30;;;;;;5056446;28;20231;-69
2023/05/07 02:27:47;;;;;;;9.20;4.57;;;17.00;1.00;;;;;;5056215;28;20195;-69
2023/05/07 02:30:13;;;;;;;15.33;10.33;;;17.10;1.00;;;;;;5056197;28;20177;-69
2023/05/07 02:32:38;;;;;;;13.43;8.57;;;17.00;6.70;;;;;;5056289;28;20244;-70
2023/05/07 02:35:05;;;;;;;7.63;6.00;;;16.90;14.00;;;;;;5055944;28;20706;-70
2023/05/07 02:37:31;;;;;;;13.03;6.53;;;16.70;23.30;;;;;;5054929;28;20184;-70
2023/05/07 02:39:56;;;;;;;16.57;11.40;;;16.60;25.10;;;;;;5056073;28;20534;-70
2023/05/07 02:42:22;;;;;;;10.93;5.80;;;16.70;23.80;;;;;;5056175;28;20207;-70
2023/05/07 02:44:48;;;;;;;8.27;5.00;;;16.70;20.50;;;;;;5055953;28;20166;-70
2023/05/07 02:47:15;;;;;;;14.70;8.63;;;16.60;27.00;;;;;;5054702;28;20589;-70
2023/05/07 02:49:40;;;;;;;9.20;5.93;;;16.40;42.40;;;;;;5055461;28;20629;-70
2023/05/07 02:52:06;;;;;;;11.83;6.53;;;16.30;50.60;;;;;;5055701;28;20235;-70
2023/05/07 02:54:32;;;;;;;10.43;5.87;;;16.20;54.50;;;;;;5055790;28;20165;-70
2023/05/07 02:56:58;;;;;;;13.83;8.60;;;16.20;61.10;;;;;;5055613;28;20245;-70
2023/05/07 02:59:26;;;;;;;12.10;7.87;;;16.10;67.40;;;;;;5055745;28;20173;-69
2023/05/07 03:01:52;;;;;;;11.13;7.10;;;16.10;59.90;;;;;;5055793;28;20169;-69
2023/05/07 03:04:17;;;;;;;16.90;7.30;;;16.30;56.10;;;;;;5055504;28;20298;-70
2023/05/07 03:06:43;;;;;;;14.53;7.10;;;16.30;49.50;;;;;;5055590;28;20754;-70
2023/05/07 03:09:08;;;;;;;12.50;5.67;;;16.40;50.10;;;;;;5055471;28;20694;-70
2023/05/07 03:11:35;;;;;;;11.33;5.17;;;16.50;52.70;;;;;;5054037;28;20244;-70
2023/05/07 03:14:01;;;;;;;11.07;5.13;;;16.60;49.20;;;;;;5055488;28;20630;-70
2023/05/07 03:16:27;;;;;;;9.07;4.87;;;16.70;45.70;;;;;;5055359;28;20177;-69
2023/05/07 03:18:52;;;;;;;12.10;5.30;;;16.80;41.50;;;;;;5058571;28;20745;-69
2023/05/07 03:21:18;;;;;;;10.20;4.80;;;16.70;49.00;;;;;;5075726;28;20577;-69
2023/05/07 03:23:43;;;;;;;8.20;4.73;;;16.70;55.80;;;;;;5075295;28;20613;-69
2023/05/07 03:26:09;;;;;;;6.47;4.67;;;16.70;60.30;;;;;;5057050;28;20177;-69
2023/05/07 03:28:35;;;;;;;8.43;5.07;;;16.60;72.80;;;;;;5074976;28;20172;-69
2023/05/07 03:31:00;;;;;;;8.00;5.47;;;16.50;85.20;;;;;;5074895;28;20231;-69
2023/05/07 03:33:27;;;;;;;9.70;5.50;;;16.40;87.70;;;;;;5074018;28;20173;-68
2023/05/07 03:35:53;;;;;;;12.13;7.13;;;16.40;89.10;;;;;;5075006;28;20188;-70
2023/05/07 03:38:18;;;;;;;10.97;5.87;;;16.60;71.30;;;;;;5074834;28;20168;-70
2023/05/07 03:40:44;;;;;;;8.10;5.97;;;16.70;53.40;;;;;;5074874;28;20176;-70
2023/05/07 03:43:10;;;;;;;8.47;5.77;;;16.80;46.10;;;;;;5074818;28;20201;-70
2023/05/07 03:45:35;;;;;;;12.33;5.83;;;16.90;42.10;;;;;;5075029;28;20253;-69
2023/05/07 03:48:01;;;;;;;10.43;6.13;;;17.00;34.30;;;;;;5074088;28;20245;-69
2023/05/07 03:50:27;;;;;;;10.40;6.40;;;17.10;28.60;;;;;;5074749;28;20624;-69
2023/05/07 03:52:52;;;;;;;11.00;5.67;;;17.00;22.30;;;;;;5074728;28;20208;-70
2023/05/07 03:55:18;;;;;;;10.17;5.60;;;16.90;21.40;;;;;;5074642;28;20200;-70
2023/05/07 03:57:43;;;;;;;9.23;6.37;;;17.00;25.30;;;;;;5074157;28;20173;-69
2023/05/07 04:00:10;;;;;;;9.97;6.33;;;17.00;20.90;;;;;;5074387;28;20250;-69
2023/05/07 04:02:35;;;;;;;14.13;6.80;;;16.90;28.10;;;;;;5074138;28;20176;-69
2023/05/07 04:05:01;;;;;;;8.77;5.33;;;16.70;37.00;;;;;;5074318;28;20214;-69
2023/05/07 04:07:27;;;;;;;11.73;5.33;;;16.60;50.60;;;;;;5074204;28;20259;-69
2023/05/07 04:09:52;;;;;;;13.97;5.60;;;16.50;56.20;;;;;;5074413;28;20525;-69
2023/05/07 04:12:18;;;;;;;6.87;4.90;;;16.40;59.10;;;;;;5073834;28;20636;-70
2023/05/07 04:14:44;;;;;;;9.10;4.87;;;16.40;67.10;;;;;;5074177;28;20173;-69
2023/05/07 04:17:13;;;;;;;14.50;5.57;;;16.30;82.60;;;;;;5073501;28;20179;-69
2023/05/07 04:19:38;;;;;;;13.10;5.60;;;16.30;86.50;;;;;;5073573;28;20228;-69
2023/05/07 04:22:04;;;;;;;11.60;5.70;;;16.40;89.40;;;;;;5074038;28;20256;-69
2023/05/07 04:24:33;;;;;;;13.67;5.90;;;16.40;85.60;;;;;;5073955;28;20177;-69
2023/05/07 04:26:58;;;;;;;7.00;5.33;;;16.50;85.90;;;;;;5073836;28;20255;-70
2023/05/07 04:29:24;;;;;;;12.20;6.20;;;16.50;83.20;;;;;;5073811;28;20207;-70
2023/05/07 04:31:49;;;;;;;9.80;5.73;;;16.60;85.20;;;;;;5073915;28;20208;-69
2023/05/07 04:34:15;;;;;;;11.27;5.53;;;16.80;77.00;;;;;;5073774;28;20688;-69
2023/05/07 04:36:42;;;;;;;11.43;5.87;;;16.90;66.80;;;;;;5073821;28;20550;-69
2023/05/07 04:39:08;;;;;;;11.77;5.90;;;17.00;63.10;;;;;;5055609;28;20259;-70
2023/05/07 04:41:36;;;;;;;14.77;5.93;;;17.00;68.90;;;;;;5073658;28;20261;-70
2023/05/07 04:44:04;;;;;;;8.43;5.53;;;17.00;68.50;;;;;;5071950;28;20203;-69
2023/05/07 04:46:30;;;;;;;9.45;5.70;;;17.00;72.60;;;;;;5073596;28;20179;-69
2023/05/07 04:48:55;;;;;;;11.83;5.50;;;17.00;68.60;;;;;;5073119;28;20161;-69
2023/05/07 04:51:21;;;;;;;11.65;5.22;;;17.20;69.00;;;;;;5073691;28;20200;-69
2023/05/07 04:53:47;;;;;;;11.73;5.70;;;17.40;60.30;;;;;;5073417;28;20168;-69
2023/05/07 04:56:12;;;;;;;14.60;6.10;;;17.50;53.80;;;;;;5073457;28;20230;-68
2023/05/07 04:58:38;;;;;;;9.87;5.97;;;17.70;51.00;;;;;;5072672;28;20234;-69
2023/05/07 05:01:04;;;;;;;14.43;6.00;;;17.80;44.00;;;;;;5073380;28;20624;-69
2023/05/07 05:03:30;;;;;;;12.30;6.03;;;17.80;42.90;;;;;;5073525;28;20176;-68
2023/05/07 05:05:56;;;;;;;10.13;5.75;;;17.80;43.80;;;;;;5073337;28;20176;-70
2023/05/07 05:08:22;;;;;;;8.07;6.03;;;17.80;42.20;;;;;;5072834;28;20180;-70
2023/05/07 05:10:49;;;;;;;10.25;5.90;;;17.60;45.40;;;;;;5072857;28;20263;-70
2023/05/07 05:13:15;;;;;;;10.70;6.75;;;17.60;51.00;;;;;;5054845;28;20191;-70
2023/05/07 05:15:41;;;;;;;16.20;7.05;;;17.40;58.60;;;;;;5054879;28;20612;-69
2023/05/07 05:18:06;;;;;;;14.10;6.55;;;17.30;67.90;;;;;;5072764;28;20616;-70
2023/05/07 05:20:32;;;;;;;10.43;6.47;;;17.30;77.40;;;;;;5073235;28;20254;-69
2023/05/07 05:22:57;;;;;;;15.02;6.30;;;17.30;78.60;;;;;;5073059;28;20171;-70
2023/05/07 05:25:23;;;;;;;11.40;6.28;;;17.50;70.70;;;;;;5073162;28;20183;-71
2023/05/07 05:27:49;;;;;;;12.90;6.15;;;17.70;63.80;;;;;;5072572;28;20172;-69
2023/05/07 05:30:14;;;;;;;10.25;6.15;;;17.80;54.80;;;;;;5054972;28;20540;-71
2023/05/07 05:32:40;;;;;;;14.20;6.18;;;18.00;50.30;;;;;;5073028;28;20293;-70
2023/05/07 05:35:06;;;;;;;11.90;6.68;;;18.00;46.20;;;;;;5073150;28;20248;-69
2023/05/07 05:37:31;;;;;;;9.45;6.47;;;18.20;39.10;;;;;;5072763;28;20654;-70
2023/05/07 05:39:57;;;;;;;11.10;6.60;;;17.90;33.80;;;;;;5072649;28;20648;-70
2023/05/07 05:42:23;;;;;;;11.18;6.82;;;17.60;52.60;;;;;;5072488;28;20243;-70
2023/05/07 05:44:49;;;;;;;10.82;6.85;;;17.60;57.70;;;;;;5072621;28;20255;-70
2023/05/07 05:47:14;;;;;;;11.50;6.82;;;17.50;66.30;;;;;;5072479;28;20176;-70
2023/05/07 05:49:40;;;;;;;15.57;7.78;;;17.60;56.10;;;;;;5072752;28;20218;-70
2023/05/07 05:52:06;;;;;;;10.18;6.45;;;17.60;57.90;;;;;;5072234;28;20208;-69
2023/05/07 05:54:31;;;;;;;10.52;6.22;;;17.90;53.00;;;;;;5054965;28;20169;-70
2023/05/07 05:56:57;;;;;;;12.93;6.95;;;18.10;42.00;;;;;;5075363;28;20721;-70
2023/05/07 05:59:23;;;;;;;7.82;5.78;;;18.30;36.70;;;;;;5058773;28;20571;-70
2023/05/07 06:01:48;;;;;;;12.80;7.10;;;18.00;21.20;;;;;;5058594;28;20178;-71
2023/05/07 06:04:14;;;;;;;10.50;5.93;;;17.80;35.70;;;;;;5076483;28;20165;-70
2023/05/07 06:06:40;;;;;;;10.88;5.28;;;17.80;34.30;;;;;;5076383;28;20242;-70
2023/05/07 06:09:05;;;;;;;11.68;5.40;;;17.80;22.10;;;;;;5076031;28;20199;-70
2023/05/07 06:11:32;;;;;;;6.95;4.43;;;17.80;2.20;;;;;;5076215;28;20236;-70
2023/05/07 06:13:57;;;;;;;7.30;4.63;;;17.90;1.00;;;;;;5076889;28;20612;-70
2023/05/07 06:16:24;;;;;;;10.10;5.35;;;17.90;1.00;;;;;;5076235;28;20200;-70
2023/05/07 06:18:50;;;;;;;9.75;5.20;;;18.00;1.00;;;;;;5075779;28;20544;-69
2023/05/07 06:21:16;;;;;;;6.90;4.38;;;17.90;1.00;;;;;;5076109;28;20204;-69
2023/05/07 06:23:41;;;;;;;8.70;4.95;;;17.80;1.00;;;;;;5075888;28;20248;-70
2023/05/07 06:26:07;;;;;;;9.00;5.05;;;17.70;1.00;;;;;;5057835;28;20176;-70
2023/05/07 06:28:36;;;;;;;9.50;4.88;;;17.70;1.00;;;;;;5076234;28;20197;-69
2023/05/07 06:31:21;;;;;;;9.02;4.95;;;17.80;5.60;;;;;;5076255;28;20219;-70
2023/05/07 06:33:47;;;;;;;9.05;4.70;;;17.80;2.20;;;;;;5075784;28;20269;-69
2023/05/07 06:36:13;;;;;;;9.60;4.90;;;17.70;13.10;;;;;;5076120;28;20718;-70
2023/05/07 06:38:39;;;;;;;8.25;4.57;;;17.90;9.80;;;;;;5075791;28;20173;-70
2023/05/07 06:41:05;;;;;;;9.98;5.05;;;18.20;7.30;;;;;;5057785;28;20172;-69
2023/05/07 06:43:31;;;;;;;6.60;4.55;;;18.50;1.00;;;;;;5075602;28;20617;-71
2023/05/07 06:45:57;;;;;;;8.52;4.65;;;18.70;1.00;;;;;;5075472;28;20259;-70
2023/05/07 06:48:22;;;;;;;6.55;4.60;;;18.80;1.00;;;;;;5057643;28;20181;-70
2023/05/07 06:50:48;;;;;;;9.23;4.53;;;18.80;1.00;;;;;;5074854;28;20233;-70
2023/05/07 06:53:13;;;;;;;10.50;5.20;;;18.80;1.00;;;;;;5075697;28;20181;-71
2023/05/07 06:55:39;;;;;;;6.47;5.00;;;18.90;1.00;;;;;;5075423;28;20700;-71
2023/05/07 06:58:05;;;;;;;11.25;5.00;;;18.90;1.00;;;;;;5074229;28;20674;-71
2023/05/07 07:00:31;;;;;;;8.68;4.80;;;19.00;1.00;;;;;;5075399;28;20188;-71
2023/05/07 07:02:57;;;;;;;7.72;4.88;;;19.20;1.00;;;;;;5075137;28;20207;-71
2023/05/07 07:05:22;;;;;;;5.75;4.20;;;18.90;1.00;;;;;;5075528;28;20628;-71
2023/05/07 07:07:52;;;;;;;7.40;4.10;;;18.80;1.00;;;;;;5074029;28;20203;-71
2023/05/07 07:10:22;;;;;;;4.00;3.50;;;18.40;21.90;;;;;;5074575;28;20204;-71
2023/05/07 07:12:48;;;;;;;6.95;4.32;;;18.20;43.90;;;;;;5057456;28;20722;-70
2023/05/07 07:15:14;;;;;;;7.53;4.13;;;18.20;43.90;;;;;;5075312;28;20203;-71
2023/05/07 07:17:41;;;;;;;5.65;4.63;;;18.40;45.30;;;;;;5074580;28;20203;-70
2023/05/07 07:20:07;;;;;;;5.72;4.20;;;18.40;34.80;;;;;;5074917;28;20342;-70
2023/05/07 07:22:32;;;;;;;6.72;4.35;;;18.30;49.50;;;;;;5074715;28;20168;-70
2023/05/07 07:24:58;;;;;;;6.88;4.50;;;18.30;67.10;;;;;;5056254;28;20643;-70
2023/05/07 07:27:24;;;;;;;5.43;3.92;;;18.30;70.00;;;;;;5074648;28;20184;-70
2023/05/07 07:29:50;;;;;;;6.82;4.22;;;18.10;87.50;;;;;;5075072;28;20175;-70
2023/05/07 07:32:15;;;;;;;7.97;4.30;;;17.90;92.90;;;;;;5074799;28;20580;-69
2023/05/07 07:34:41;;;;;;;6.45;4.50;;;17.90;97.10;;;;;;5074845;28;20179;-70
2023/05/07 07:37:07;;;;;;;8.10;4.55;;;18.00;99.00;;;;;;5074632;28;20621;-69
2023/05/07 07:39:33;;;;;;;7.45;4.40;;;17.90;99.90;;;;;;5074481;28;20179;-70
2023/05/07 07:41:59;;;;;;;5.75;4.32;;;18.00;99.90;;;;;;5074668;28;20168;-71
2023/05/07 07:44:24;;;;;;;6.57;4.43;;;18.00;99.90;;;;;;5074547;28;20255;-70
2023/05/07 07:46:50;;;;;;;7.05;4.32;;;18.30;99.90;;;;;;5056481;28;20172;-69
2023/05/07 07:49:16;;;;;;;7.63;4.03;;;18.50;98.50;;;;;;5074242;28;20165;-70
2023/05/07 07:51:42;;;;;;;5.32;4.15;;;18.50;96.70;;;;;;5074390;28;20212;-69
2023/05/07 07:54:07;;;;;;;7.28;4.72;;;18.50;99.90;;;;;;5074112;28;20608;-71
2023/05/07 07:56:33;;;;;;;4.90;4.35;;;18.60;98.00;;;;;;5056293;28;20176;-71
2023/05/07 07:58:59;;;;;;;8.00;4.82;;;18.60;97.50;;;;;;5074176;28;20222;-70
2023/05/07 08:01:25;;;;;;;8.82;4.28;;;18.70;94.00;;;;;;5074254;28;20172;-69
2023/05/07 08:03:51;;;;;;;6.50;4.15;;;18.80;93.00;;;;;;5073767;28;20246;-70
2023/05/07 08:06:17;;;;;;;7.15;4.50;;;18.70;90.80;;;;;;5074086;28;20181;-70
2023/05/07 08:08:42;;;;;;;6.90;4.28;;;18.80;95.50;;;;;;5073180;28;20172;-70
2023/05/07 08:11:08;;;;;;;5.38;3.95;;;18.50;98.30;;;;;;5073734;28;20287;-71
2023/05/07 08:13:34;;;;;;;6.57;3.97;;;18.40;99.90;;;;;;5073938;28;20180;-70
2023/05/07 08:16:00;;;;;;;5.05;4.25;;;18.30;99.90;;;;;;5073784;28;20168;-70
2023/05/07 08:18:28;;;;;;;4.65;4.22;;;18.30;99.90;;;;;;5073297;28;20200;-70
2023/05/07 08:20:53;;;;;;;4.55;4.05;;;18.10;99.90;;;;;;5073793;28;20176;-70
2023/05/07 08:23:19;;;;;;;7.40;4.35;;;17.70;99.90;;;;;;5073095;28;20516;-70
2023/05/07 08:25:45;;;;;;;5.13;4.60;;;17.90;99.90;;;;;;5073526;28;20240;-70
2023/05/07 08:28:10;;;;;;;7.32;4.70;;;17.90;99.90;;;;;;5073674;28;20222;-70
2023/05/07 08:30:36;;;;;;;8.35;4.43;;;18.10;99.90;;;;;;5073433;28;20247;-69
2023/05/07 08:33:02;;;;;;;7.70;4.68;;;18.30;99.90;;;;;;5073881;28;20215;-69
2023/05/07 08:35:27;;;;;;;5.05;4.63;;;18.40;99.90;;;;;;5073565;28;20176;-69
2023/05/07 08:37:53;;;;;;;7.10;5.20;;;18.50;99.90;;;;;;5073098;28;20173;-69
2023/05/07 08:40:24;;;;;;;8.85;5.90;;;18.40;99.90;;;;;;5073651;28;20221;-70
2023/05/07 08:42:56;;;;;;;8.27;4.90;;;18.30;99.90;;;;;;5073782;28;20243;-70
2023/05/07 08:45:22;;;;;;;6.72;5.00;;;18.30;99.90;;;;;;5072777;28;20206;-70
2023/05/07 08:47:55;;;;;;;9.18;5.80;;;18.20;99.90;;;;;;5073657;28;20173;-69
2023/05/07 08:50:21;;;;;;;8.60;5.50;;;18.50;99.90;;;;;;5072351;28;20267;-69
2023/05/07 08:52:47;;;;;;;8.90;5.47;;;18.80;99.90;;;;;;5072991;28;20223;-69
2023/05/07 08:55:13;;;;;;;6.95;4.65;;;18.70;99.90;;;;;;5073174;28;20254;-71
2023/05/07 08:57:38;;;;;;;6.28;4.10;;;18.40;99.90;;;;;;5073107;28;20615;-70
2023/05/07 09:00:06;;;;;;;4.55;3.60;;;18.20;99.90;;;;;;5072963;28;20713;-71
2023/05/07 09:02:34;;;;;;;5.40;3.97;;;18.20;99.90;;;;;;5055103;28;20525;-71
2023/05/07 09:05:00;;;;;;;6.85;4.60;;;18.30;99.90;;;;;;5072586;28;20164;-71
2023/05/07 09:07:26;;;;;;;6.95;4.45;;;18.40;99.90;;;;;;5072883;28;20191;-71
2023/05/07 09:09:53;;;;;;;6.80;5.05;;;18.50;99.90;;;;;;5054498;28;20180;-70
2023/05/07 09:12:19;;;;;;;4.80;4.40;;;18.50;99.90;;;;;;5054877;28;20594;-71
2023/05/07 09:14:46;;;;;;;8.25;4.65;;;18.50;99.90;;;;;;5054887;28;20179;-70
2023/05/07 09:17:11;;;;;;;7.25;4.57;;;18.60;99.90;;;;;;5072999;28;20242;-70
2023/05/07 09:19:37;;;;;;;6.35;4.70;;;18.60;99.90;;;;;;5072336;28;20687;-70
2023/05/07 09:22:06;;;;;;;8.48;4.20;;;18.60;99.90;;;;;;5055017;28;20259;-70
2023/05/07 09:24:34;;;;;;;4.50;3.75;;;18.80;99.90;;;;;;5072198;28;20169;-68
2023/05/07 09:27:02;;;;;;;8.00;4.32;;;18.60;99.90;;;;;;5072838;28;20263;-69
2023/05/07 09:29:35;;;;;;;8.25;4.38;;;18.80;99.90;;;;;;5054469;28;20173;-70
2023/05/07 09:32:03;;;;;;;6.20;4.20;;;18.90;99.90;;;;;;5072333;28;20208;-69
2023/05/07 09:34:30;;;;;;;6.30;4.70;;;18.90;99.90;;;;;;5072605;28;20252;-70
2023/05/07 09:36:58;;;;;;;5.35;4.38;;;19.00;99.90;;;;;;5072881;28;20176;-73
2023/05/07 09:39:24;;;;;;;6.55;4.35;;;19.10;99.90;;;;;;5072445;28;20173;-70
2023/05/07 09:41:51;;;;;;;5.63;4.15;;;19.30;99.90;;;;;;5072674;28;20514;-70
2023/05/07 09:44:17;;;;;;;6.38;4.82;;;19.20;97.60;;;;;;5072637;28;20489;-70
2023/05/07 09:46:44;;;;;;;8.10;5.55;;;19.30;95.10;;;;;;5071870;28;20168;-71
2023/05/07 09:49:23;;;;;;;7.75;5.78;;;19.30;84.90;;;;;;5071385;28;20164;-71
2023/05/07 09:51:52;;;;;;;7.57;5.93;;;19.50;84.50;;;;;;5072386;28;20200;-70
2023/05/07 09:54:18;;;;;;;6.28;5.35;;;19.30;84.00;;;;;;5072927;28;20173;-71
2023/05/07 09:56:49;;;;;;;7.57;5.47;;;19.30;99.40;;;;;;5054931;28;20173;-69
2023/05/07 09:59:16;;;;;;;8.32;5.50;;;19.10;99.90;;;;;;5071831;28;20267;-70
2023/05/07 10:01:43;;;;;;;6.70;5.50;;;19.30;99.30;;;;;;5072584;28;20173;-71
2023/05/07 10:04:10;;;;;;;8.10;4.97;;;19.50;91.30;;;;;;5071848;28;20168;-71
2023/05/07 10:06:37;;;;;;;5.55;5.05;;;19.50;81.40;;;;;;5072514;28;20180;-72
2023/05/07 10:09:05;;;;;;;6.82;4.95;;;19.60;93.10;;;;;;5072300;28;20247;-71
2023/05/07 10:11:33;;;;;;;5.93;5.07;;;19.50;95.30;;;;;;5072138;28;20631;-71
2023/05/07 10:14:01;;;;;;;7.13;4.63;;;19.30;99.90;;;;;;5072238;28;20215;-71
2023/05/07 10:16:36;;;;;;;5.10;3.28;;;19.10;96.30;;;;;;5071719;28;20234;-71
2023/05/07 10:19:07;;;;;;;3.78;3.38;;;19.00;95.10;;;;;;5071353;28;20232;-71
2023/05/07 10:21:44;;;;;;;6.70;3.70;;;19.10;85.70;;;;;;5072118;28;20200;-71
2023/05/07 10:24:16;;;;;;;4.95;2.75;;;18.80;87.20;;;;;;5071823;28;20259;-72
2023/05/07 10:26:45;;;;;;;4.97;2.97;;;18.50;91.20;;;;;;5071671;28;20161;-70
2023/05/07 10:29:27;;;;;;;6.55;3.50;;;18.50;99.90;;;;;;5071628;28;20680;-70
2023/05/07 10:31:58;;;;;;;4.25;3.72;;;18.50;99.90;;;;;;5072059;28;20214;-72
2023/05/07 10:34:29;;;;;;;5.13;3.88;;;18.60;99.90;;;;;;5072184;28;20176;-71
2023/05/07 10:36:56;;;;;;;4.50;3.75;;;18.80;99.90;;;;;;5072079;28;20196;-71
2023/05/07 10:39:22;;;;;;;5.68;4.03;;;18.70;99.90;;;;;;5071758;28;20264;-73
2023/05/07 10:41:48;;;;;;;5.07;3.88;;;19.10;99.90;;;;;;5072629;28;20207;-72
2023/05/07 10:44:30;;;;;;;5.50;4.40;;;19.40;99.90;;;;;;5075703;28;20192;-73
2023/05/07 10:47:09;;;;;;;6.18;4.47;;;19.60;99.90;;;;;;5075416;28;20267;-72
2023/05/07 10:49:55;;;;;;;4.80;4.32;;;19.80;99.90;;;;;;5057824;28;20194;-72
2023/05/07 10:52:26;;;;;;;5.03;4.57;;;19.70;96.20;;;;;;5057966;28;20397;-72
2023/05/07 10:55:17;;;;;;;4.18;3.78;;;19.80;96.90;;;;;;5075184;28;20157;-72
2023/05/07 10:57:43;;;;;;;5.13;3.50;;;19.50;79.60;;;;;;5057607;28;20529;-72
2023/05/07 11:00:29;;;;;;;5.57;3.97;;;19.50;91.80;;;;;;5074607;28;20179;-71
2023/05/07 11:03:01;;;;;;;4.05;3.75;;;19.60;99.90;;;;;;5007685;28;20177;-71
2023/05/07 11:05:29;;;;;;;6.32;4.78;;;19.70;93.60;;;;;;5075216;28;20349;-71
2023/05/07 11:08:05;;;;;;;4.35;3.00;;;19.50;96.10;;;;;;5074953;28;20211;-72
2023/05/07 11:10:53;;;;;;;5.03;3.47;;;19.50;82.90;;;;;;5074742;28;20168;-72
2023/05/07 11:13:45;;;;;;;4.30;3.85;;;19.60;91.50;;;;;;5075284;28;20192;-72
2023/05/07 11:16:24;;;;;;;5.80;3.70;;;19.70;89.80;;;;;;5056636;28;20196;-72
2023/05/07 11:18:55;;;;;;;3.50;3.20;;;19.80;93.90;;;;;;5075088;28;20208;-71
2023/05/07 11:21:41;;;;;;;4.65;3.10;;;19.80;75.20;;;;;;5074905;28;20213;-72
2023/05/07 11:24:08;;;;;;;3.85;3.35;;;19.90;75.40;;;;;;5074983;28;20173;-73
2023/05/07 11:26:47;;;;;;;3.60;3.22;;;20.20;73.90;;;;;;5075076;28;20172;-72
2023/05/07 11:29:21;;;;;;;4.55;3.03;;;20.50;54.80;;;;;;5074899;28;20190;-73
2023/05/07 11:31:54;;;;;;;4.75;3.45;;;20.80;58.80;;;;;;5073970;28;20349;-72
2023/05/07 11:34:25;;;;;;;5.05;3.10;;;20.90;44.80;;;;;;5074718;28;20168;-71
2023/05/07 11:36:52;;;;;;;3.20;2.90;;;20.80;24.40;;;;;;5057059;28;20172;-71
2023/05/07 11:39:29;;;;;;;3.50;3.20;;;20.80;32.80;;;;;;5074094;28;20168;-73
2023/05/07 11:41:55;;;;;;;3.53;3.22;;;20.60;37.60;;;;;;5074971;28;20168;-72
2023/05/07 11:44:21;;;;;;;4.20;3.08;;;20.50;25.80;;;;;;5074362;28;20248;-72
2023/05/07 11:46:46;;;;;;;3.72;3.40;;;20.70;22.90;;;;;;5074274;28;20179;-72
2023/05/07 11:49:12;;;;;;;3.47;3.17;;;21.00;24.70;;;;;;5073567;28;20168;-71
2023/05/07 11:51:39;;;;;;;4.43;3.08;;;20.80;18.10;;;;;;5074591;28;20587;-71
2023/05/07 11:54:08;;;;;;;4.07;2.80;;;20.50;17.50;;;;;;5073832;28;20255;-70
2023/05/07 11:56:35;;;;;;;4.70;3.80;;;20.50;29.70;;;;;;5074049;28;20165;-73
2023/05/07 11:59:01;;;;;;;7.80;5.50;;;20.60;38.80;;;;;;5073201;28;20168;-72
2023/05/07 12:01:27;;;;;;;5.75;4.22;;;20.90;43.50;;;;;;5055980;28;20176;-74
2023/05/07 12:03:52;;;;;;;6.30;4.25;;;21.10;37.80;;;;;;5073625;28;20183;-73
2023/05/07 12:06:18;;;;;;;4.70;3.70;;;21.20;34.50;;;;;;5055581;28;20176;-73
2023/05/07 12:08:45;;;;;;;4.43;4.03;;;21.60;35.60;;;;;;5073908;28;20196;-72
2023/05/07 12:11:23;;;;;;;3.95;3.65;;;21.30;33.50;;;;;;5073609;28;20207;-71
2023/05/07 12:13:49;;;;;;;3.90;3.60;;;21.50;41.60;;;;;;5073698;28;20176;-71
2023/05/07 12:16:15;;;;;;;4.50;4.03;;;21.30;27.40;;;;;;5073928;28;20169;-71
2023/05/07 12:18:41;;;;;;;4.03;3.63;;;21.40;25.30;;;;;;5073230;28;20488;-71
2023/05/07 12:21:07;;;;;;;4.28;3.88;;;21.60;16.30;;;;;;5073611;28;20260;-71
2023/05/07 12:23:35;;;;;;;3.70;3.40;;;21.90;10.90;;;;;;5073927;28;20632;-71
2023/05/07 12:26:01;;;;;;;3.50;3.20;;;22.20;1.00;;;;;;5073631;28;20251;-71
2023/05/07 12:28:27;;;;;;;3.50;3.20;;;21.90;1.00;;;;;;5073312;28;20290;-71
2023/05/07 12:30:53;;;;;;;3.10;2.85;;;21.70;1.00;;;;;;5073533;28;20180;-71
2023/05/07 12:33:23;;;;;;;3.55;3.35;;;21.50;12.50;;;;;;5073743;28;20172;-70
2023/05/07 12:35:50;;;;;;;3.78;2.70;;;21.70;10.70;;;;;;5073674;28;20639;-69
2023/05/07 12:38:17;;;;;;;3.22;2.92;;;22.00;1.00;;;;;;5073564;28;20180;-71
2023/05/07 12:40:45;;;;;;;4.18;3.28;;;21.70;1.00;;;;;;5073362;28;20176;-71
2023/05/07 12:43:27;;;;;;;3.60;3.30;;;21.80;1.00;;;;;;5073110;28;20172;-72
2023/05/07 12:45:55;;;;;;;4.03;3.10;;;21.80;1.00;;;;;;5073275;28;20196;-70